Here is the Quick Look data you requested

The Data originates at the National Weather Service, and is made available here by the UAlbany Department of Atmospheric and Environmental Sciences

Surface Observations

K8B0 150755Z AUTO 26005KT 7SM OVC023 01/00 A3002 RMK AO2=
KAUG 150753Z AUTO VRB03KT 10SM CLR 02/01 A3009 RMK AO2 SLP193 T00220011=
KBGR 150753Z 21004KT 10SM BKN065 OVC100 03/02 A3007 RMK AO2 SLP185 T00330022=
KBHB 150756Z AUTO 23008KT 10SM OVC009 07/05 A3009 RMK AO2 CIG 007V012 SLP192
 T00670050=
KCAR 150754Z AUTO 21008KT 8SM FEW006 SCT010 OVC020 01/M01 A2994 RMK AO2 SNE34
 SLP150 P0000 T00061011=
KFVE 150753Z AUTO 21006KT 1/2SM FG VV002 00/M02 A2991 RMK AO2 SNE08B28E51
 SLP139 P0000 T00001022=
KGNR 150756Z AUTO 00000KT M01/M03 A2999 RMK AO1 SLP174 T10111028=
KHUL 150753Z AUTO 21007KT 7SM BKN007 OVC055 01/01 A2999 RMK AO2
 UPB09E21B43E51RAB41E43SNB21E41 CIG 005V010 SLP162 P0001 T00110006=
KIWI 150753Z AUTO 23003KT 10SM FEW011 04/04 A3011 RMK AO2 SLP196 T00440039=
KIZG 150754Z AUTO VRB05KT 10SM CLR 05/02 A3007 RMK AO2 SLP187 T00500022=
KLEW 150756Z AUTO 17005KT 10SM CLR 02/01 A3008 RMK AO2 SLP204 T00220011 FZRANO=
KMLT 150753Z AUTO VRB03KT 10SM SCT045 BKN050 OVC095 01/M02 A3004 RMK AO2 SLP180
 T00111017=
KPQI 150756Z AUTO 18006KT 10SM BKN016 OVC025 00/M01 A2997 RMK AO2 UPB05E15SNE05
 SLP194 P0000 T00001006 FZRANO=
KPWM 150751Z 24003KT 10SM CLR 04/02 A3011 RMK AO2 SLP198 T00390022=
KRKD 150756Z AUTO 24013G17KT 10SM OVC007 06/05 A3009 RMK AO2 SLP190 T00610050=
KSFM 150756Z AUTO 00000KT 5SM BR CLR 00/M01 A3012 RMK AO2 SLP204 T00001006
 FZRANO PNO $=
KWVL 150756Z AUTO 10SM CLR 02/01 A3005 RMK AO2 SLP208 T00170006 FZRANO $=